createdAt,value
2023-11-15T00:00:15.006Z,95280.00
2023-11-15T00:01:15.001Z,95286.00
2023-11-15T00:02:14.975Z,95296.00
2023-11-15T00:03:15.099Z,95301.00
2023-11-15T00:04:14.994Z,95300.00
2023-11-15T00:05:14.981Z,95303.00
2023-11-15T00:06:15.064Z,95299.00
2023-11-15T00:07:14.939Z,95295.00
2023-11-15T00:08:14.938Z,95290.00
2023-11-15T00:09:14.918Z,95286.00
2023-11-15T00:10:15.063Z,95287.00
2023-11-15T00:11:14.896Z,95283.00
2023-11-15T00:12:14.885Z,95285.00
2023-11-15T00:13:14.890Z,95289.00
2023-11-15T00:14:14.879Z,95288.00
2023-11-15T00:15:14.864Z,95286.00
2023-11-15T00:16:14.887Z,95281.00
2023-11-15T00:17:14.842Z,95278.00
2023-11-15T00:18:15.135Z,95276.00
2023-11-15T00:19:14.849Z,95280.00
2023-11-15T00:20:14.945Z,95281.00
2023-11-15T00:21:14.804Z,95281.00
2023-11-15T00:22:14.795Z,95282.00
2023-11-15T00:23:14.797Z,95279.00
2023-11-15T00:24:14.794Z,95283.00
2023-11-15T00:25:17.314Z,95285.00
2023-11-15T00:26:14.752Z,95289.00
2023-11-15T00:27:14.761Z,95289.00
2023-11-15T00:28:14.758Z,95284.00
2023-11-15T00:29:24.132Z,95280.00
2023-11-15T00:30:14.728Z,95282.00
2023-11-15T00:31:14.716Z,95286.00
2023-11-15T00:32:14.702Z,95284.00
2023-11-15T00:33:14.792Z,95279.00
2023-11-15T00:34:14.733Z,95277.00
2023-11-15T00:35:14.775Z,95276.00
2023-11-15T00:36:14.696Z,95279.00
2023-11-15T00:37:14.681Z,95282.00
2023-11-15T00:38:14.656Z,95279.00
2023-11-15T00:39:14.653Z,95280.00
2023-11-15T00:40:14.653Z,95286.00
2023-11-15T00:41:14.634Z,95286.00
2023-11-15T00:42:14.622Z,95285.00
2023-11-15T00:43:14.606Z,95292.00
2023-11-15T00:44:14.598Z,95290.00
2023-11-15T00:45:14.593Z,95290.00
2023-11-15T00:46:14.623Z,95295.00
2023-11-15T00:47:14.573Z,95298.00
2023-11-15T00:48:14.653Z,95299.00
2023-11-15T00:49:14.557Z,95303.00
2023-11-15T00:50:19.657Z,95309.00
2023-11-15T00:51:14.538Z,95317.00
2023-11-15T00:52:14.514Z,95324.00
2023-11-15T00:53:14.515Z,95329.00
2023-11-15T00:54:14.502Z,95333.00
2023-11-15T00:55:14.496Z,95338.00
2023-11-15T00:56:14.485Z,95340.00
2023-11-15T00:57:14.481Z,95339.00
2023-11-15T00:58:14.460Z,95341.00
2023-11-15T00:59:14.457Z,95345.00
2023-11-15T01:00:14.442Z,95345.00
2023-11-15T01:01:14.446Z,95348.00
2023-11-15T01:02:14.509Z,95348.00
2023-11-15T01:03:14.517Z,95348.00
2023-11-15T01:04:14.558Z,95347.00
2023-11-15T01:05:14.417Z,95351.00
2023-11-15T01:06:14.398Z,95353.00
2023-11-15T01:07:14.385Z,95353.00
2023-11-15T01:08:14.377Z,95359.00
2023-11-15T01:09:14.365Z,95356.00
2023-11-15T01:10:14.391Z,95355.00
2023-11-15T01:11:14.346Z,95356.00
2023-11-15T01:12:14.341Z,95357.00
2023-11-15T01:13:14.329Z,95360.00
2023-11-15T01:14:14.332Z,95364.00
2023-11-15T01:15:14.323Z,95376.00
2023-11-15T01:16:18.372Z,95380.00
2023-11-15T01:17:14.298Z,95386.00
2023-11-15T01:18:14.316Z,95390.00
2023-11-15T01:19:14.286Z,95390.00
2023-11-15T01:20:14.264Z,95389.00
2023-11-15T01:21:14.267Z,95387.00
2023-11-15T01:22:14.250Z,95388.00
2023-11-15T01:23:14.243Z,95391.00
2023-11-15T01:24:14.229Z,95392.00
2023-11-15T01:25:14.221Z,95394.00
2023-11-15T01:26:14.206Z,95392.00
2023-11-15T01:27:14.202Z,95394.00
2023-11-15T01:28:14.197Z,95396.00
2023-11-15T01:29:14.182Z,95398.00
2023-11-15T01:30:14.172Z,95404.00
2023-11-15T01:31:14.161Z,95403.00
2023-11-15T01:32:14.160Z,95404.00
2023-11-15T01:33:14.211Z,95403.00
2023-11-15T01:34:14.172Z,95402.00
2023-11-15T01:35:14.141Z,95399.00
2023-11-15T01:36:14.147Z,95394.00
2023-11-15T01:37:14.127Z,95389.00
2023-11-15T01:38:14.092Z,95385.00
2023-11-15T01:39:14.109Z,95382.00
2023-11-15T01:40:14.082Z,95382.00
2023-11-15T01:41:14.069Z,95385.00
2023-11-15T01:42:14.117Z,95387.00
2023-11-15T01:43:14.063Z,95391.00
2023-11-15T01:44:14.039Z,95395.00
2023-11-15T01:45:14.050Z,95395.00
2023-11-15T01:46:14.070Z,95394.00
2023-11-15T01:47:14.020Z,95392.00
2023-11-15T01:48:14.041Z,95396.00
2023-11-15T01:49:14.005Z,95397.00
2023-11-15T01:50:13.978Z,95403.00
2023-11-15T01:51:13.979Z,95406.00
2023-11-15T01:52:13.962Z,95401.00
2023-11-15T01:53:13.971Z,95400.00
2023-11-15T01:54:13.948Z,95396.00
2023-11-15T01:55:13.943Z,95405.00
2023-11-15T01:56:13.928Z,95417.00
2023-11-15T01:57:13.928Z,95421.00
2023-11-15T01:58:19.281Z,95419.00
2023-11-15T01:59:13.906Z,95420.00
2023-11-15T02:00:13.901Z,95424.00
2023-11-15T02:01:13.925Z,95425.00
2023-11-15T02:02:13.883Z,95421.00
2023-11-15T02:03:13.952Z,95419.00
2023-11-15T02:04:13.909Z,95418.00
2023-11-15T02:05:13.862Z,95420.00
2023-11-15T02:06:13.851Z,95430.00
2023-11-15T02:07:13.844Z,95433.00
2023-11-15T02:08:13.831Z,95437.00
2023-11-15T02:09:13.828Z,95442.00
2023-11-15T02:10:13.930Z,95440.00
2023-11-15T02:11:13.812Z,95428.00
2023-11-15T02:12:13.779Z,95418.00
2023-11-15T02:13:13.785Z,95420.00
2023-11-15T02:14:13.763Z,95425.00
2023-11-15T02:15:13.766Z,95428.00
2023-11-15T02:16:13.839Z,95430.00
2023-11-15T02:17:13.746Z,95435.00
2023-11-15T02:18:13.842Z,95432.00
2023-11-15T02:19:13.723Z,95429.00
2023-11-15T02:20:13.712Z,95431.00
2023-11-15T02:21:13.712Z,95436.00
2023-11-15T02:22:13.689Z,95441.00
2023-11-15T02:23:13.691Z,95443.00
2023-11-15T02:24:13.688Z,95450.00
2023-11-15T02:25:13.674Z,95445.00
2023-11-15T02:26:13.730Z,95440.00
2023-11-15T02:27:13.651Z,95435.00
2023-11-15T02:28:13.646Z,95433.00
2023-11-15T02:29:13.635Z,95438.00
2023-11-15T02:30:13.630Z,95445.00
2023-11-15T02:31:13.714Z,95451.00
2023-11-15T02:32:13.605Z,95446.00
2023-11-15T02:33:13.662Z,95441.00
2023-11-15T02:34:13.582Z,95442.00
2023-11-15T02:35:34.724Z,95433.00
2023-11-15T02:36:13.587Z,95432.00
2023-11-15T02:37:13.569Z,95436.00
2023-11-15T02:38:13.553Z,95435.00
2023-11-15T02:39:13.549Z,95427.00
2023-11-15T02:40:13.536Z,95439.00
2023-11-15T02:41:13.550Z,95443.00
2023-11-15T02:42:13.515Z,95434.00
2023-11-15T02:43:13.510Z,95440.00
2023-11-15T02:44:13.494Z,95448.00
2023-11-15T02:45:13.483Z,95449.00
2023-11-15T02:46:13.513Z,95435.00
2023-11-15T02:47:13.468Z,95431.00
2023-11-15T02:48:13.567Z,95445.00
2023-11-15T02:49:13.481Z,95448.00
2023-11-15T02:50:13.441Z,95435.00
2023-11-15T02:51:13.427Z,95439.00
2023-11-15T02:52:13.428Z,95434.00
2023-11-15T02:53:13.405Z,95434.00
2023-11-15T02:54:13.409Z,95444.00
2023-11-15T02:55:13.387Z,95440.00
2023-11-15T02:56:13.385Z,95433.00
2023-11-15T02:57:13.377Z,95430.00
2023-11-15T02:58:13.367Z,95434.00
2023-11-15T02:59:13.344Z,95433.00
2023-11-15T03:00:13.370Z,95442.00
2023-11-15T03:01:13.353Z,95456.00
2023-11-15T03:02:16.722Z,95465.00
2023-11-15T03:03:13.393Z,95441.00
2023-11-15T03:04:13.389Z,95433.00
2023-11-15T03:05:13.320Z,95447.00
2023-11-15T03:06:13.294Z,95456.00
2023-11-15T03:07:13.296Z,95452.00
2023-11-15T03:08:13.273Z,95443.00
2023-11-15T03:09:13.266Z,95453.00
2023-11-15T03:10:13.249Z,95462.00
2023-11-15T03:11:13.246Z,95467.00
2023-11-15T03:12:13.237Z,95456.00
2023-11-15T03:13:13.233Z,95446.00
2023-11-15T03:14:13.233Z,95451.00
2023-11-15T03:15:13.241Z,95454.00
2023-11-15T03:16:13.293Z,95459.00
2023-11-15T03:17:13.185Z,95456.00
2023-11-15T03:18:19.630Z,95453.00
2023-11-15T03:19:13.179Z,95455.00
2023-11-15T03:20:13.189Z,95460.00
2023-11-15T03:21:13.166Z,95462.00
2023-11-15T03:22:13.150Z,95469.00
2023-11-15T03:23:13.132Z,95471.00
2023-11-15T03:24:13.131Z,95474.00
2023-11-15T03:25:13.111Z,95481.00
2023-11-15T03:26:13.105Z,95476.00
2023-11-15T03:27:13.096Z,95479.00
2023-11-15T03:28:13.087Z,95495.00
2023-11-15T03:29:13.091Z,95490.00
2023-11-15T03:30:13.184Z,95488.00
2023-11-15T03:31:13.074Z,95484.00
2023-11-15T03:32:13.151Z,95473.00
2023-11-15T03:33:13.146Z,95482.00
2023-11-15T03:34:14.373Z,95477.00
2023-11-15T03:35:13.022Z,95468.00
2023-11-15T03:36:13.014Z,95466.00
2023-11-15T03:37:13.020Z,95466.00
2023-11-15T03:38:12.997Z,95467.00
2023-11-15T03:39:13.084Z,95468.00
2023-11-15T03:40:12.988Z,95482.00
2023-11-15T03:41:12.978Z,95483.00
2023-11-15T03:42:12.961Z,95481.00
2023-11-15T03:43:12.951Z,95482.00
2023-11-15T03:44:12.965Z,95488.00
2023-11-15T03:45:12.943Z,95497.00
2023-11-15T03:46:12.951Z,95496.00
2023-11-15T03:47:12.907Z,95486.00
2023-11-15T03:48:12.929Z,95491.00
2023-11-15T03:49:12.889Z,95495.00
2023-11-15T03:50:12.935Z,95491.00
2023-11-15T03:51:12.895Z,95492.00
2023-11-15T03:52:12.885Z,95490.00
2023-11-15T03:53:12.855Z,95489.00
2023-11-15T03:54:12.858Z,95491.00
2023-11-15T03:55:12.851Z,95494.00
2023-11-15T03:56:12.845Z,95495.00
2023-11-15T03:57:12.852Z,95502.00
2023-11-15T03:58:12.818Z,95512.00
2023-11-15T03:59:12.811Z,95525.00
2023-11-15T04:00:12.803Z,95530.00
2023-11-15T04:01:12.794Z,95520.00
2023-11-15T04:02:12.812Z,95520.00
2023-11-15T04:03:13.088Z,95535.00
2023-11-15T04:04:12.988Z,95544.00
2023-11-15T04:05:12.791Z,95547.00
2023-11-15T04:06:19.103Z,95547.00
2023-11-15T04:07:12.739Z,95549.00
2023-11-15T04:08:12.737Z,95546.00
2023-11-15T04:09:12.714Z,95544.00
2023-11-15T04:10:12.715Z,95550.00
2023-11-15T04:11:12.696Z,95554.00
2023-11-15T04:12:12.702Z,95561.00
2023-11-15T04:13:12.676Z,95555.00
2023-11-15T04:14:12.713Z,95558.00
2023-11-15T04:15:12.670Z,95561.00
2023-11-15T04:16:12.706Z,95561.00
2023-11-15T04:17:12.684Z,95566.00
2023-11-15T04:18:12.662Z,95552.00
2023-11-15T04:19:12.633Z,95549.00
2023-11-15T04:20:12.634Z,95557.00
2023-11-15T04:21:12.609Z,95563.00
2023-11-15T04:22:17.100Z,95567.00
2023-11-15T04:23:12.594Z,95568.00
2023-11-15T04:24:12.588Z,95570.00
2023-11-15T04:25:12.578Z,95572.00
2023-11-15T04:26:12.584Z,95580.00
2023-11-15T04:27:12.561Z,95580.00
2023-11-15T04:28:12.571Z,95581.00
2023-11-15T04:29:12.540Z,95580.00
2023-11-15T04:30:12.546Z,95578.00
2023-11-15T04:31:12.623Z,95582.00
2023-11-15T04:32:12.518Z,95587.00
2023-11-15T04:33:13.748Z,95589.00
2023-11-15T04:34:12.506Z,95592.00
2023-11-15T04:35:12.497Z,95595.00
2023-11-15T04:36:12.487Z,95594.00
2023-11-15T04:37:12.466Z,95599.00
2023-11-15T04:38:12.471Z,95608.00
2023-11-15T04:39:12.544Z,95609.00
2023-11-15T04:40:12.449Z,95609.00
2023-11-15T04:41:12.440Z,95609.00
2023-11-15T04:42:12.434Z,95611.00
2023-11-15T04:43:12.429Z,95612.00
2023-11-15T04:44:12.419Z,95617.00
2023-11-15T04:45:12.446Z,95617.00
2023-11-15T04:46:12.457Z,95618.00
2023-11-15T04:47:12.376Z,95623.00
2023-11-15T04:48:12.453Z,95625.00
2023-11-15T04:49:12.357Z,95630.00
2023-11-15T04:50:12.354Z,95631.00
2023-11-15T04:51:12.339Z,95631.00
2023-11-15T04:52:12.352Z,95632.00
2023-11-15T04:53:12.327Z,95632.00
2023-11-15T04:54:12.336Z,95631.00
2023-11-15T04:55:12.306Z,95636.00
2023-11-15T04:56:12.360Z,95643.00
2023-11-15T04:57:12.293Z,95647.00
2023-11-15T04:58:18.659Z,95649.00
2023-11-15T04:59:12.272Z,95655.00
2023-11-15T05:00:12.344Z,95651.00
2023-11-15T05:01:12.263Z,95652.00
2023-11-15T05:02:12.257Z,95661.00
2023-11-15T05:03:12.326Z,95665.00
2023-11-15T05:04:12.305Z,95671.00
2023-11-15T05:05:12.273Z,95674.00
2023-11-15T05:06:12.223Z,95668.00
2023-11-15T05:07:12.204Z,95657.00
2023-11-15T05:08:12.196Z,95657.00
2023-11-15T05:09:12.183Z,95660.00
2023-11-15T05:10:12.195Z,95660.00
2023-11-15T05:11:12.172Z,95650.00
2023-11-15T05:12:12.154Z,95652.00
2023-11-15T05:13:12.145Z,95653.00
2023-11-15T05:14:12.135Z,95652.00
2023-11-15T05:15:12.138Z,95658.00
2023-11-15T05:16:12.135Z,95653.00
2023-11-15T05:17:12.105Z,95654.00
2023-11-15T05:18:12.178Z,95656.00
2023-11-15T05:19:12.088Z,95656.00
2023-11-15T05:20:12.097Z,95659.00
2023-11-15T05:21:12.072Z,95657.00
2023-11-15T05:22:12.075Z,95666.00
2023-11-15T05:23:12.059Z,95673.00
2023-11-15T05:24:12.336Z,95672.00
2023-11-15T05:25:12.039Z,95676.00
2023-11-15T05:26:12.032Z,95680.00
2023-11-15T05:27:12.031Z,95675.00
2023-11-15T05:28:12.021Z,95679.00
2023-11-15T05:29:12.013Z,95692.00
2023-11-15T05:30:11.998Z,95686.00
2023-11-15T05:31:11.985Z,95676.00
2023-11-15T05:32:11.975Z,95670.00
2023-11-15T05:33:12.031Z,95677.00
2023-11-15T05:34:11.965Z,95671.00
2023-11-15T05:35:11.961Z,95672.00
2023-11-15T05:36:11.957Z,95664.00
2023-11-15T05:37:11.935Z,95663.00
2023-11-15T05:38:11.953Z,95671.00
2023-11-15T05:39:11.908Z,95668.00
2023-11-15T05:40:13.265Z,95673.00
2023-11-15T05:41:11.890Z,95661.00
2023-11-15T05:42:11.892Z,95654.00
2023-11-15T05:43:11.886Z,95641.00
2023-11-15T05:44:11.881Z,95646.00
2023-11-15T05:45:12.045Z,95649.00
2023-11-15T05:46:11.883Z,95655.00
2023-11-15T05:47:11.835Z,95657.00
2023-11-15T05:48:11.885Z,95653.00
2023-11-15T05:49:11.836Z,95654.00
2023-11-15T05:50:11.826Z,95655.00
2023-11-15T05:51:11.807Z,95652.00
2023-11-15T05:52:11.801Z,95656.00
2023-11-15T05:53:11.809Z,95656.00
2023-11-15T05:54:11.786Z,95658.00
2023-11-15T05:55:11.782Z,95663.00
2023-11-15T05:56:17.419Z,95669.00
2023-11-15T05:57:11.758Z,95671.00
2023-11-15T05:58:11.738Z,95667.00
2023-11-15T05:59:11.733Z,95665.00
2023-11-15T06:00:11.748Z,95676.00
2023-11-15T06:01:11.715Z,95672.00
2023-11-15T06:02:11.723Z,95682.00
2023-11-15T06:03:11.812Z,95682.00
2023-11-15T06:04:11.779Z,95692.00
2023-11-15T06:05:11.675Z,95685.00
2023-11-15T06:06:11.759Z,95692.00
2023-11-15T06:07:11.663Z,95697.00
2023-11-15T06:08:11.673Z,95688.00
2023-11-15T06:09:11.666Z,95686.00
2023-11-15T06:10:11.659Z,95687.00
2023-11-15T06:11:11.624Z,95681.00
2023-11-15T06:12:12.971Z,95686.00
2023-11-15T06:13:11.618Z,95684.00
2023-11-15T06:14:11.611Z,95680.00
2023-11-15T06:15:11.746Z,95681.00
2023-11-15T06:16:11.589Z,95685.00
2023-11-15T06:17:11.624Z,95692.00
2023-11-15T06:18:11.666Z,95692.00
2023-11-15T06:19:11.559Z,95697.00
2023-11-15T06:20:11.679Z,95706.00
2023-11-15T06:21:11.540Z,95711.00
2023-11-15T06:22:11.571Z,95722.00
2023-11-15T06:23:11.521Z,95723.00
2023-11-15T06:24:11.546Z,95726.00
2023-11-15T06:25:11.498Z,95727.00
2023-11-15T06:26:11.516Z,95730.00
2023-11-15T06:27:11.493Z,95734.00
2023-11-15T06:28:11.484Z,95745.00
2023-11-15T06:29:11.460Z,95749.00
2023-11-15T06:30:11.545Z,95750.00
2023-11-15T06:31:11.443Z,95748.00
2023-11-15T06:32:11.441Z,95742.00
2023-11-15T06:33:16.197Z,95745.00
2023-11-15T06:34:11.524Z,95743.00
2023-11-15T06:35:11.399Z,95744.00
2023-11-15T06:36:11.427Z,95744.00
2023-11-15T06:37:11.384Z,95746.00
2023-11-15T06:38:11.395Z,95750.00
2023-11-15T06:39:11.373Z,95748.00
2023-11-15T06:40:11.379Z,95746.00
2023-11-15T06:41:11.966Z,95743.00
2023-11-15T06:42:13.585Z,95742.00
2023-11-15T06:43:11.482Z,95744.00
2023-11-15T06:44:11.527Z,95749.00
2023-11-15T06:45:11.499Z,95750.00
2023-11-15T06:46:11.481Z,95753.00
2023-11-15T06:47:11.483Z,95751.00
2023-11-15T06:48:11.479Z,95748.00
2023-11-15T06:49:11.441Z,95749.00
2023-11-15T06:50:11.426Z,95756.00
2023-11-15T06:51:11.514Z,95758.00
2023-11-15T06:52:11.408Z,95758.00
2023-11-15T06:53:11.388Z,95764.00
2023-11-15T06:54:11.464Z,95766.00
2023-11-15T06:55:11.434Z,95773.00
2023-11-15T06:56:11.365Z,95770.00
2023-11-15T06:57:11.396Z,95778.00
2023-11-15T06:58:11.358Z,95787.00
2023-11-15T06:59:11.352Z,95788.00
2023-11-15T07:00:11.440Z,95794.00
2023-11-15T07:01:11.388Z,95801.00
2023-11-15T07:02:11.332Z,95796.00
2023-11-15T07:03:11.363Z,95793.00
2023-11-15T07:04:11.416Z,95790.00
2023-11-15T07:05:11.320Z,95788.00
2023-11-15T07:06:11.276Z,95793.00
2023-11-15T07:07:11.269Z,95799.00
2023-11-15T07:08:11.307Z,95798.00
2023-11-15T07:09:11.303Z,95800.00
2023-11-15T07:10:11.251Z,95801.00
2023-11-15T07:11:11.237Z,95797.00
2023-11-15T07:12:11.295Z,95796.00
2023-11-15T07:13:11.229Z,95798.00
2023-11-15T07:14:11.209Z,95802.00
2023-11-15T07:15:11.221Z,95805.00
2023-11-15T07:16:11.208Z,95805.00
2023-11-15T07:17:11.191Z,95803.00
2023-11-15T07:18:11.225Z,95801.00
2023-11-15T07:19:11.183Z,95798.00
2023-11-15T07:20:11.226Z,95794.00
2023-11-15T07:21:11.187Z,95795.00
2023-11-15T07:22:11.133Z,95800.00
2023-11-15T07:23:11.136Z,95801.00
2023-11-15T07:24:11.202Z,95803.00
2023-11-15T07:25:11.118Z,95808.00
2023-11-15T07:26:11.099Z,95811.00
2023-11-15T07:27:11.196Z,95814.00
2023-11-15T07:28:11.097Z,95822.00
2023-11-15T07:29:11.092Z,95829.00
2023-11-15T07:30:11.098Z,95834.00
2023-11-15T07:31:11.055Z,95828.00
2023-11-15T07:32:11.034Z,95825.00
2023-11-15T07:33:11.114Z,95828.00
2023-11-15T07:34:11.023Z,95832.00
2023-11-15T07:35:11.016Z,95835.00
2023-11-15T07:36:11.048Z,95834.00
2023-11-15T07:37:11.009Z,95830.00
2023-11-15T07:38:11.007Z,95825.00
2023-11-15T07:39:10.996Z,95824.00
2023-11-15T07:40:11.040Z,95824.00
2023-11-15T07:41:10.976Z,95819.00
2023-11-15T07:42:11.028Z,95813.00
2023-11-15T07:43:10.954Z,95813.00
2023-11-15T07:44:10.933Z,95808.00
2023-11-15T07:45:11.050Z,95815.00
2023-11-15T07:46:10.992Z,95825.00
2023-11-15T07:47:10.921Z,95830.00
2023-11-15T07:48:10.967Z,95834.00
2023-11-15T07:49:10.902Z,95829.00
2023-11-15T07:50:10.875Z,95825.00
2023-11-15T07:51:10.891Z,95828.00
2023-11-15T07:52:10.868Z,95837.00
2023-11-15T07:53:10.867Z,95835.00
2023-11-15T07:54:10.870Z,95833.00
2023-11-15T07:55:10.851Z,95830.00
2023-11-15T07:56:10.823Z,95833.00
2023-11-15T07:57:10.853Z,95835.00
2023-11-15T07:58:10.818Z,95842.00
2023-11-15T07:59:10.803Z,95843.00
2023-11-15T08:00:10.828Z,95844.00
2023-11-15T08:01:10.786Z,95849.00
2023-11-15T08:02:10.778Z,95847.00
2023-11-15T08:03:10.857Z,95850.00
2023-11-15T08:04:10.951Z,95853.00
2023-11-15T08:05:10.758Z,95859.00
2023-11-15T08:06:10.739Z,95859.00
2023-11-15T08:07:10.750Z,95863.00
2023-11-15T08:08:10.739Z,95871.00
2023-11-15T08:09:10.722Z,95875.00
2023-11-15T08:10:10.720Z,95874.00
2023-11-15T08:11:10.705Z,95880.00
2023-11-15T08:12:10.704Z,95887.00
2023-11-15T08:13:10.701Z,95888.00
2023-11-15T08:14:10.670Z,95887.00
2023-11-15T08:15:10.755Z,95891.00
2023-11-15T08:16:10.655Z,95892.00
2023-11-15T08:17:10.643Z,95896.00
2023-11-15T08:18:10.767Z,95897.00
2023-11-15T08:19:10.696Z,95894.00
2023-11-15T08:20:10.735Z,95893.00
2023-11-15T08:21:10.691Z,95895.00
2023-11-15T08:22:10.617Z,95894.00
2023-11-15T08:23:10.604Z,95890.00
2023-11-15T08:24:10.641Z,95889.00
2023-11-15T08:25:10.706Z,95886.00
2023-11-15T08:26:10.561Z,95884.00
2023-11-15T08:27:10.655Z,95884.00
2023-11-15T08:28:10.543Z,95885.00
2023-11-15T08:29:10.545Z,95881.00
2023-11-15T08:30:10.542Z,95880.00
2023-11-15T08:31:10.525Z,95885.00
2023-11-15T08:32:10.518Z,95890.00
2023-11-15T08:33:10.662Z,95888.00
2023-11-15T08:34:10.549Z,95883.00
2023-11-15T08:35:10.505Z,95882.00
2023-11-15T08:36:10.515Z,95879.00
2023-11-15T08:37:10.470Z,95877.00
2023-11-15T08:38:10.468Z,95877.00
2023-11-15T08:39:10.498Z,95873.00
2023-11-15T08:40:19.922Z,95867.00
2023-11-15T08:41:11.483Z,95868.00
2023-11-15T08:42:10.469Z,95875.00
2023-11-15T08:43:10.429Z,95878.00
2023-11-15T08:44:10.413Z,95884.00
2023-11-15T08:45:10.503Z,95887.00
2023-11-15T08:46:10.447Z,95884.00
2023-11-15T08:47:10.392Z,95888.00
2023-11-15T08:48:10.497Z,95888.00
2023-11-15T08:49:10.423Z,95892.00
2023-11-15T08:50:10.408Z,95899.00
2023-11-15T08:51:10.386Z,95901.00
2023-11-15T08:52:10.345Z,95906.00
2023-11-15T08:53:10.328Z,95910.00
2023-11-15T08:54:10.400Z,95914.00
2023-11-15T08:55:10.311Z,95918.00
2023-11-15T08:56:10.299Z,95920.00
2023-11-15T08:57:10.318Z,95919.00
2023-11-15T08:58:10.284Z,95919.00
2023-11-15T08:59:10.288Z,95917.00
2023-11-15T09:00:10.295Z,95921.00
2023-11-15T09:01:10.350Z,95921.00
2023-11-15T09:02:10.263Z,95924.00
2023-11-15T09:03:10.350Z,95930.00
2023-11-15T09:04:10.400Z,95935.00
2023-11-15T09:05:10.228Z,95940.00
2023-11-15T09:06:10.272Z,95943.00
2023-11-15T09:07:10.225Z,95945.00
2023-11-15T09:08:10.217Z,95946.00
2023-11-15T09:09:10.227Z,95947.00
2023-11-15T09:10:10.429Z,95945.00
2023-11-15T09:11:10.163Z,95940.00
2023-11-15T09:12:10.207Z,95938.00
2023-11-15T09:13:10.264Z,95940.00
2023-11-15T09:14:10.131Z,95942.00
2023-11-15T09:15:10.265Z,95945.00
2023-11-15T09:16:12.349Z,95941.00
2023-11-15T09:17:10.162Z,95941.00
2023-11-15T09:18:10.165Z,95939.00
2023-11-15T09:19:10.097Z,95939.00
2023-11-15T09:20:10.128Z,95943.00
2023-11-15T09:21:10.126Z,95941.00
2023-11-15T09:22:10.081Z,95945.00
2023-11-15T09:23:18.513Z,95947.00
2023-11-15T09:24:11.098Z,95950.00
2023-11-15T09:25:11.498Z,95950.00
2023-11-15T09:26:10.037Z,95949.00
2023-11-15T09:27:10.090Z,95947.00
2023-11-15T09:28:10.013Z,95946.00
2023-11-15T09:29:10.017Z,95947.00
2023-11-15T09:30:10.120Z,95948.00
2023-11-15T09:31:10.001Z,95948.00
2023-11-15T09:32:09.974Z,95948.00
2023-11-15T09:33:10.072Z,95949.00
2023-11-15T09:34:10.033Z,95949.00
2023-11-15T09:35:09.960Z,95949.00
2023-11-15T09:36:09.991Z,95946.00
2023-11-15T09:37:09.944Z,95939.00
2023-11-15T09:38:09.947Z,95940.00
2023-11-15T09:39:09.975Z,95942.00
2023-11-15T09:40:10.596Z,95945.00
2023-11-15T09:41:09.906Z,95949.00
2023-11-15T09:42:09.993Z,95954.00
2023-11-15T09:43:09.914Z,95955.00
2023-11-15T09:44:09.926Z,95956.00
2023-11-15T09:45:09.864Z,95953.00
2023-11-15T09:46:09.979Z,95951.00
2023-11-15T09:47:09.859Z,95948.00
2023-11-15T09:48:09.898Z,95949.00
2023-11-15T09:49:09.971Z,95948.00
2023-11-15T09:50:09.830Z,95952.00
2023-11-15T09:51:09.867Z,95958.00
2023-11-15T09:52:09.804Z,95962.00
2023-11-15T09:53:09.804Z,95964.00
2023-11-15T09:54:16.428Z,95961.00
2023-11-15T09:55:10.806Z,95956.00
2023-11-15T09:56:09.764Z,95955.00
2023-11-15T09:57:09.810Z,95951.00
2023-11-15T09:58:09.744Z,95948.00
2023-11-15T10:00:16.222Z,95944.00
2023-11-15T10:01:10.761Z,95943.00
2023-11-15T10:02:09.736Z,95948.00
2023-11-15T10:03:10.024Z,95952.00
2023-11-15T10:04:09.698Z,95950.00
2023-11-15T10:05:11.037Z,95954.00
2023-11-15T10:06:09.720Z,95960.00
2023-11-15T10:07:09.700Z,95964.00
2023-11-15T10:08:09.654Z,95961.00
2023-11-15T10:09:09.677Z,95956.00
2023-11-15T10:10:09.658Z,95953.00
2023-11-15T10:11:09.674Z,95952.00
2023-11-15T10:12:10.028Z,95951.00
2023-11-15T10:13:09.628Z,95953.00
2023-11-15T10:14:09.668Z,95957.00
2023-11-15T10:15:09.635Z,95958.00
2023-11-15T10:16:09.670Z,95958.00
2023-11-15T10:17:09.645Z,95953.00
2023-11-15T10:18:09.654Z,95949.00
2023-11-15T10:19:10.160Z,95953.00
2023-11-15T10:20:09.566Z,95948.00
2023-11-15T10:21:09.685Z,95952.00
2023-11-15T10:22:09.532Z,95950.00
2023-11-15T10:23:09.544Z,95950.00
2023-11-15T10:24:09.587Z,95954.00
2023-11-15T10:25:09.516Z,95956.00
2023-11-15T10:26:09.497Z,95956.00
2023-11-15T10:27:09.549Z,95958.00
2023-11-15T10:28:09.506Z,95958.00
2023-11-15T10:29:10.508Z,95957.00
2023-11-15T10:30:09.519Z,95953.00
2023-11-15T10:31:09.495Z,95947.00
2023-11-15T10:32:09.480Z,95943.00
2023-11-15T10:33:09.501Z,95937.00
2023-11-15T10:34:13.072Z,95934.00
2023-11-15T10:35:10.440Z,95934.00
2023-11-15T10:36:09.461Z,95938.00
2023-11-15T10:37:09.430Z,95942.00
2023-11-15T10:38:09.439Z,95945.00
2023-11-15T10:39:09.445Z,95953.00
2023-11-15T10:40:09.384Z,95954.00
2023-11-15T10:41:09.401Z,95958.00
2023-11-15T10:42:09.368Z,95960.00
2023-11-15T10:43:09.373Z,95964.00
2023-11-15T10:44:09.344Z,95965.00
2023-11-15T10:45:09.391Z,95967.00
2023-11-15T10:46:09.359Z,95970.00
2023-11-15T10:47:09.360Z,95972.00
2023-11-15T10:48:09.912Z,95977.00
2023-11-15T10:49:09.306Z,95983.00
2023-11-15T10:50:09.299Z,95986.00
2023-11-15T10:51:09.342Z,95990.00
2023-11-15T10:52:09.302Z,95988.00
2023-11-15T10:53:09.277Z,95989.00
2023-11-15T10:54:09.294Z,95989.00
2023-11-15T10:55:09.253Z,95988.00
2023-11-15T10:56:09.242Z,95989.00
2023-11-15T10:57:09.265Z,95992.00
2023-11-15T10:58:09.221Z,95994.00
2023-11-15T10:59:09.208Z,95993.00
2023-11-15T11:00:09.233Z,95998.00
2023-11-15T11:01:09.199Z,96001.00
2023-11-15T11:02:09.193Z,96004.00
2023-11-15T11:03:09.233Z,96007.00
2023-11-15T11:04:09.291Z,96014.00
2023-11-15T11:05:09.172Z,96017.00
2023-11-15T11:06:09.173Z,96018.00
2023-11-15T11:07:09.176Z,96012.00
2023-11-15T11:08:09.133Z,96009.00
2023-11-15T11:09:09.205Z,96010.00
2023-11-15T11:10:09.109Z,96008.00
2023-11-15T11:11:09.148Z,96010.00
2023-11-15T11:12:09.119Z,96010.00
2023-11-15T11:13:09.095Z,96012.00
2023-11-15T11:14:09.104Z,96010.00
2023-11-15T11:15:09.089Z,96009.00
2023-11-15T11:16:09.670Z,96002.00
2023-11-15T11:17:09.077Z,96000.00
2023-11-15T11:18:09.110Z,95995.00
2023-11-15T11:19:09.031Z,95995.00
2023-11-15T11:20:09.036Z,95994.00
2023-11-15T11:21:09.051Z,95992.00
2023-11-15T11:22:09.300Z,95991.00
2023-11-15T11:23:09.044Z,95987.00
2023-11-15T11:24:09.025Z,95984.00
2023-11-15T11:25:08.983Z,95986.00
2023-11-15T11:26:08.991Z,95985.00
2023-11-15T11:27:09.012Z,95983.00
2023-11-15T11:28:08.960Z,95982.00
2023-11-15T11:29:08.963Z,95986.00
2023-11-15T11:30:09.060Z,95988.00
2023-11-15T11:31:08.949Z,95990.00
2023-11-15T11:32:08.928Z,95989.00
2023-11-15T11:33:09.003Z,95990.00
2023-11-15T11:34:08.903Z,95990.00
2023-11-15T11:35:08.984Z,95985.00
2023-11-15T11:36:08.979Z,95985.00
2023-11-15T11:37:08.918Z,95988.00
2023-11-15T11:38:08.920Z,95991.00
2023-11-15T11:39:08.938Z,95993.00
2023-11-15T11:40:08.879Z,95997.00
2023-11-15T11:41:08.836Z,96006.00
2023-11-15T11:42:08.861Z,96015.00
2023-11-15T11:43:08.841Z,96023.00
2023-11-15T11:44:08.845Z,96026.00
2023-11-15T11:45:08.817Z,96026.00